Time;durP1;ratioP1;P1;durP2;ratioP2;P2;SDS_P1;SDS_P2;PMS_P1;PMS_P2;Temp;Humidity;BMP_temperature;BMP_pressure;BME280_temperature;BME280_humidity;BME280_pressure;Samples;Min_cycle;Max_cycle;Signal;HPM_P1;HPM_P2
2021/06/06 00:02:24;;;;;;;114.82;53.28;;;15.80;89.30;;;;;;5136116;27;20027;-35
2021/06/06 00:04:50;;;;;;;105.82;51.97;;;15.80;90.30;;;;;;5135714;27;20102;-35
2021/06/06 00:07:15;;;;;;;109.07;54.30;;;15.70;90.70;;;;;;5135718;27;20049;-35
2021/06/06 00:09:41;;;;;;;96.32;52.20;;;15.60;90.70;;;;;;5135734;27;20450;-35
2021/06/06 00:12:08;;;;;;;102.13;49.65;;;15.70;90.80;;;;;;5135686;27;20064;-35
2021/06/06 00:14:36;;;;;;;100.07;53.28;;;15.70;90.80;;;;;;5135612;27;20023;-35
2021/06/06 00:17:05;;;;;;;104.47;50.65;;;15.60;91.00;;;;;;5135444;27;20031;-41
2021/06/06 00:19:31;;;;;;;107.95;52.00;;;15.60;91.30;;;;;;5134623;27;20483;-36
2021/06/06 00:21:58;;;;;;;97.05;48.65;;;15.50;91.30;;;;;;5135411;27;20034;-36
2021/06/06 00:24:30;;;;;;;100.72;50.55;;;15.40;91.30;;;;;;5135225;27;20130;-36
2021/06/06 00:26:56;;;;;;;99.10;49.03;;;15.50;91.40;;;;;;5135643;27;20054;-36
2021/06/06 00:29:22;;;;;;;100.75;49.50;;;15.30;91.20;;;;;;5135295;27;20093;-36
2021/06/06 00:31:48;;;;;;;89.28;43.90;;;15.30;91.50;;;;;;5135331;27;20026;-36
2021/06/06 00:34:14;;;;;;;85.60;44.30;;;15.30;91.10;;;;;;5135225;27;20533;-37
2021/06/06 00:36:40;;;;;;;79.40;43.08;;;15.30;90.90;;;;;;5135494;27;20062;-36
2021/06/06 00:39:06;;;;;;;79.70;42.92;;;15.20;91.20;;;;;;5135483;27;20023;-36
2021/06/06 00:41:36;;;;;;;91.47;44.10;;;15.30;90.70;;;;;;5135072;27;20034;-36
2021/06/06 00:44:01;;;;;;;87.38;41.70;;;15.30;90.40;;;;;;5135394;27;20015;-36
2021/06/06 00:46:28;;;;;;;85.38;43.53;;;15.20;90.50;;;;;;5135487;27;20106;-36
2021/06/06 00:48:55;;;;;;;77.95;40.22;;;15.30;90.90;;;;;;5134989;27;20015;-36
2021/06/06 00:51:28;;;;;;;77.93;42.80;;;15.20;90.60;;;;;;5135467;27;20315;-36
2021/06/06 00:54:09;;;;;;;87.05;45.63;;;15.30;90.80;;;;;;5134887;27;20022;-36
2021/06/06 00:56:35;;;;;;;76.05;39.80;;;15.30;90.20;;;;;;5135120;27;20486;-36
2021/06/06 00:59:02;;;;;;;73.70;40.00;;;15.30;90.00;;;;;;5134667;27;20027;-36
2021/06/06 01:01:28;;;;;;;68.40;38.17;;;15.30;89.40;;;;;;5134499;27;20382;-36
2021/06/06 01:03:56;;;;;;;51.63;32.22;;;15.30;88.80;;;;;;5134955;27;20031;-36
2021/06/06 01:06:31;;;;;;;56.35;32.40;;;15.40;88.20;;;;;;5134651;27;20027;-36
2021/06/06 01:08:59;;;;;;;54.00;30.08;;;15.40;88.60;;;;;;5134611;27;20496;-36
2021/06/06 01:11:40;;;;;;;52.17;29.15;;;15.40;87.90;;;;;;5134028;27;20059;-36
2021/06/06 01:14:23;;;;;;;47.33;29.35;;;15.50;87.50;;;;;;5133353;27;20031;-36
2021/06/06 01:17:18;;;;;;;48.22;29.02;;;15.40;87.90;;;;;;5135244;27;20020;-36
2021/06/06 01:20:12;;;;;;;48.72;27.00;;;15.60;87.20;;;;;;5100547;27;20027;-36
2021/06/06 01:23:08;;;;;;;44.75;27.50;;;15.40;87.60;;;;;;5134645;27;20058;-36
2021/06/06 01:25:38;;;;;;;42.50;24.52;;;15.50;87.40;;;;;;5134233;27;20042;-36
2021/06/06 01:28:06;;;;;;;44.85;26.15;;;15.30;87.80;;;;;;5134263;27;20030;-36
2021/06/06 01:30:36;;;;;;;45.67;26.85;;;15.40;87.80;;;;;;5134443;27;20027;-36
2021/06/06 01:33:07;;;;;;;42.93;26.20;;;15.40;87.60;;;;;;5134431;27;20022;-36
2021/06/06 01:35:35;;;;;;;53.08;29.20;;;15.30;88.00;;;;;;5134362;28;20023;-36
2021/06/06 01:38:11;;;;;;;50.83;29.60;;;15.30;88.00;;;;;;5133221;28;20028;-35
2021/06/06 01:40:39;;;;;;;50.35;30.85;;;15.20;88.10;;;;;;5133073;28;20034;-36
2021/06/06 01:43:10;;;;;;;51.63;28.88;;;15.00;89.00;;;;;;5134679;27;20019;-35
2021/06/06 01:45:43;;;;;;;52.72;29.23;;;15.20;88.80;;;;;;5134648;27;20031;-36
2021/06/06 01:48:11;;;;;;;46.40;28.33;;;15.30;88.10;;;;;;5134518;27;20054;-36
2021/06/06 01:50:43;;;;;;;51.70;30.00;;;15.20;88.70;;;;;;5134100;27;20033;-35
2021/06/06 01:53:11;;;;;;;50.05;27.55;;;15.20;88.50;;;;;;5134650;27;20420;-36
2021/06/06 01:55:43;;;;;;;54.25;30.92;;;15.10;88.60;;;;;;5134565;27;20023;-36
2021/06/06 01:58:09;;;;;;;45.80;28.40;;;15.20;88.60;;;;;;5134755;27;20030;-36
2021/06/06 02:01:00;;;;;;;54.33;29.50;;;15.20;88.50;;;;;;5134168;27;20386;-35
2021/06/06 02:03:26;;;;;;;51.60;29.33;;;15.30;88.40;;;;;;5125011;28;20031;-35
2021/06/06 02:05:56;;;;;;;45.03;26.15;;;15.30;88.30;;;;;;5133971;28;20039;-36
2021/06/06 02:08:25;;;;;;;41.03;25.45;;;15.30;88.10;;;;;;5134192;27;20020;-35
2021/06/06 02:11:01;;;;;;;47.57;26.67;;;15.30;88.10;;;;;;5134156;27;20019;-35
2021/06/06 02:14:04;;;;;;;35.70;22.92;;;15.30;87.90;;;;;;5134130;27;20496;-36
2021/06/06 02:16:35;;;;;;;36.80;23.98;;;15.20;87.60;;;;;;5134269;27;20110;-35
2021/06/06 02:19:01;;;;;;;38.13;24.55;;;15.20;87.80;;;;;;5133984;27;20027;-36
2021/06/06 02:21:27;;;;;;;42.30;23.23;;;15.30;87.30;;;;;;5133906;28;20034;-35
2021/06/06 02:23:52;;;;;;;34.15;24.42;;;15.30;86.90;;;;;;5135690;27;20489;-35
2021/06/06 02:26:21;;;;;;;38.70;22.92;;;15.30;87.00;;;;;;5138030;27;20031;-34
2021/06/06 02:28:54;;;;;;;35.47;23.33;;;15.30;87.00;;;;;;5137819;27;20019;-35
2021/06/06 02:31:45;;;;;;;33.35;22.65;;;15.30;86.90;;;;;;5137981;27;20019;-35
2021/06/06 02:34:26;;;;;;;33.72;21.77;;;15.30;87.30;;;;;;5137929;27;20030;-35
2021/06/06 02:36:59;;;;;;;;;;;15.40;86.60;;;;;;5138100;27;20026;-35
2021/06/06 02:39:37;;;;;;;34.00;20.73;;;15.30;86.80;;;;;;5136731;27;19951;-35
2021/06/06 02:42:09;;;;;;;33.55;20.85;;;15.20;87.00;;;;;;5137847;27;20019;-35
2021/06/06 02:44:46;;;;;;;36.50;22.40;;;15.10;87.40;;;;;;5137499;27;20064;-35
2021/06/06 02:47:13;;;;;;;35.58;21.35;;;15.10;87.80;;;;;;5137850;27;20019;-35
2021/06/06 02:49:42;;;;;;;33.38;21.40;;;15.00;88.00;;;;;;5137419;27;20494;-35
2021/06/06 02:52:17;;;;;;;34.35;22.77;;;15.10;87.90;;;;;;5137336;27;20111;-35
2021/06/06 02:54:55;;;;;;;34.72;22.38;;;15.30;87.60;;;;;;5137784;27;20497;-35
2021/06/06 02:57:22;;;;;;;36.67;21.73;;;15.30;87.40;;;;;;5136783;27;20031;-35
2021/06/06 02:59:54;;;;;;;35.75;23.95;;;15.20;87.90;;;;;;5137288;27;20027;-35
2021/06/06 03:02:23;;;;;;;41.72;25.38;;;15.20;87.80;;;;;;5137475;27;20038;-36
2021/06/06 03:04:54;;;;;;;40.47;23.93;;;15.20;88.20;;;;;;5137295;27;20497;-35
2021/06/06 03:07:24;;;;;;;;;;;14.90;89.30;;;;;;5137823;27;20027;-35
2021/06/06 03:09:51;;;;;;;40.90;24.50;;;14.80;89.50;;;;;;5137304;27;19911;-35
2021/06/06 03:12:19;;;;;;;47.70;26.30;;;14.90;89.80;;;;;;5137024;27;20374;-35
2021/06/06 03:14:47;;;;;;;43.45;26.45;;;14.80;90.30;;;;;;5137209;27;20363;-36
2021/06/06 03:17:25;;;;;;;45.88;27.77;;;14.90;90.20;;;;;;5136940;27;20050;-35
2021/06/06 03:19:55;;;;;;;45.50;27.48;;;14.90;90.40;;;;;;5137053;27;20516;-35
2021/06/06 03:22:30;;;;;;;38.47;26.88;;;14.90;90.40;;;;;;5137072;27;20031;-35
2021/06/06 03:25:04;;;;;;;52.83;28.85;;;15.00;90.40;;;;;;5136484;27;20035;-35
2021/06/06 03:27:38;;;;;;;54.45;31.02;;;15.10;90.10;;;;;;5136985;27;20023;-35
2021/06/06 03:30:37;;;;;;;55.97;30.88;;;15.00;90.60;;;;;;5136954;27;20511;-38
2021/06/06 03:33:07;;;;;;;40.22;26.65;;;15.00;90.70;;;;;;5136865;27;20019;-36
2021/06/06 03:35:33;;;;;;;52.13;28.85;;;14.80;90.60;;;;;;5136382;27;20031;-35
2021/06/06 03:37:59;;;;;;;54.17;32.05;;;14.80;90.90;;;;;;5135154;27;20058;-35
2021/06/06 03:40:28;;;;;;;47.15;30.13;;;14.80;90.50;;;;;;5136389;27;20059;-35
2021/06/06 03:42:53;;;;;;;39.55;27.30;;;15.00;90.50;;;;;;5136462;27;20019;-35
2021/06/06 03:45:19;;;;;;;43.97;26.45;;;15.10;90.00;;;;;;5136493;27;20412;-35
2021/06/06 03:47:45;;;;;;;41.40;29.20;;;15.10;89.20;;;;;;5136478;27;20111;-35
2021/06/06 03:50:13;;;;;;;49.42;29.75;;;15.00;89.40;;;;;;5134793;27;20023;-35
2021/06/06 03:52:39;;;;;;;45.33;27.55;;;15.00;89.40;;;;;;5136206;27;20026;-35
2021/06/06 03:55:08;;;;;;;53.30;28.05;;;15.10;89.80;;;;;;5136335;27;20027;-35
2021/06/06 03:57:34;;;;;;;39.75;27.17;;;15.20;88.80;;;;;;5135956;27;20027;-35
2021/06/06 04:00:01;;;;;;;51.95;28.95;;;15.10;89.20;;;;;;5136070;27;20530;-36
2021/06/06 04:02:26;;;;;;;42.20;26.83;;;15.10;89.30;;;;;;5135803;27;20088;-36
2021/06/06 04:04:52;;;;;;;46.83;27.45;;;15.10;89.20;;;;;;5136098;27;20031;-35
2021/06/06 04:07:18;;;;;;;44.60;28.42;;;15.00;89.30;;;;;;5135915;27;20019;-35
2021/06/06 04:09:43;;;;;;;41.75;26.63;;;14.90;90.50;;;;;;5135838;27;20145;-35
2021/06/06 04:12:09;;;;;;;47.35;28.85;;;15.00;90.10;;;;;;5136015;27;20109;-35
2021/06/06 04:14:35;;;;;;;42.83;26.08;;;15.20;89.80;;;;;;5135875;27;20565;-36
2021/06/06 04:17:01;;;;;;;52.03;31.52;;;15.00;90.20;;;;;;5135957;27;20031;-45
2021/06/06 04:19:26;;;;;;;51.22;29.30;;;15.00;90.30;;;;;;5135596;27;20019;-35
2021/06/06 04:21:52;;;;;;;57.58;32.05;;;15.10;90.30;;;;;;5135460;27;20024;-35
2021/06/06 04:24:18;;;;;;;48.40;30.10;;;15.10;90.30;;;;;;5135439;27;20035;-35
2021/06/06 04:26:43;;;;;;;48.97;28.92;;;15.10;90.60;;;;;;5135423;27;20468;-35
2021/06/06 04:29:10;;;;;;;51.22;31.85;;;15.00;90.60;;;;;;5135673;27;20030;-35
2021/06/06 04:31:36;;;;;;;47.33;27.52;;;15.10;90.80;;;;;;5135271;27;20023;-35
2021/06/06 04:34:02;;;;;;;45.22;29.30;;;14.90;90.70;;;;;;5135292;27;20023;-35
2021/06/06 04:36:28;;;;;;;47.25;27.02;;;14.90;91.30;;;;;;5135330;27;20482;-35
2021/06/06 04:38:54;;;;;;;46.75;29.23;;;15.10;90.80;;;;;;5135211;27;20104;-35
2021/06/06 04:41:20;;;;;;;47.95;28.60;;;15.10;90.60;;;;;;5135215;27;20045;-35
2021/06/06 04:43:46;;;;;;;43.88;27.52;;;15.00;90.60;;;;;;5135122;27;20015;-35
2021/06/06 04:46:14;;;;;;;48.17;28.30;;;15.10;90.40;;;;;;5134529;27;20035;-35
2021/06/06 04:48:45;;;;;;;53.30;28.35;;;15.10;90.10;;;;;;5135791;27;20074;-35
2021/06/06 04:51:18;;;;;;;42.60;27.92;;;15.20;89.50;;;;;;5135000;27;20030;-35
2021/06/06 04:53:44;;;;;;;41.08;25.95;;;15.30;89.00;;;;;;5135335;27;20031;-35
2021/06/06 04:56:12;;;;;;;41.05;26.35;;;15.30;88.90;;;;;;5135381;27;20058;-35
2021/06/06 04:58:38;;;;;;;42.03;26.95;;;15.30;89.00;;;;;;5134780;27;20034;-35
2021/06/06 05:01:03;;;;;;;41.53;26.60;;;15.20;89.20;;;;;;5134805;27;20027;-36
2021/06/06 05:03:29;;;;;;;40.10;24.85;;;15.20;89.60;;;;;;5134692;27;20019;-35
2021/06/06 05:05:55;;;;;;;39.85;26.83;;;15.20;89.50;;;;;;5134668;27;20031;-35
2021/06/06 05:08:23;;;;;;;44.33;26.05;;;15.20;90.00;;;;;;5134746;27;20477;-35
2021/06/06 05:10:50;;;;;;;50.35;29.35;;;15.20;89.40;;;;;;5134948;27;20141;-41
2021/06/06 05:13:17;;;;;;;47.03;28.67;;;15.30;88.90;;;;;;5134605;27;20457;-35
2021/06/06 05:15:43;;;;;;;40.72;27.17;;;15.30;88.40;;;;;;5134919;27;20023;-35
2021/06/06 05:18:10;;;;;;;44.75;25.23;;;15.20;88.70;;;;;;5134604;27;20034;-35
2021/06/06 05:20:43;;;;;;;49.40;26.83;;;15.20;89.30;;;;;;5134962;27;20437;-36
2021/06/06 05:23:10;;;;;;;52.92;27.80;;;15.30;88.40;;;;;;5134835;27;20030;-36
2021/06/06 05:25:38;;;;;;;44.28;26.75;;;15.20;89.20;;;;;;5134256;27;20121;-35
2021/06/06 05:28:06;;;;;;;40.90;24.65;;;15.40;88.40;;;;;;5134487;27;20424;-36
2021/06/06 05:30:35;;;;;;;41.30;26.33;;;15.30;88.10;;;;;;5134750;27;20030;-43
2021/06/06 05:33:01;;;;;;;40.58;25.88;;;15.20;88.60;;;;;;5134448;27;20016;-35
2021/06/06 05:35:28;;;;;;;44.25;27.85;;;15.10;88.50;;;;;;5133090;27;20033;-36
2021/06/06 05:37:54;;;;;;;46.28;27.15;;;15.30;88.40;;;;;;5133155;28;20027;-36
2021/06/06 05:40:22;;;;;;;52.53;29.27;;;15.30;88.50;;;;;;5134379;27;20027;-35
2021/06/06 05:42:48;;;;;;;50.55;28.27;;;15.50;87.60;;;;;;5134303;27;20071;-35
2021/06/06 05:45:15;;;;;;;40.40;25.23;;;15.60;87.40;;;;;;5132925;28;20031;-35
2021/06/06 05:47:41;;;;;;;40.08;25.95;;;15.40;87.70;;;;;;5134326;27;20015;-35
2021/06/06 05:50:09;;;;;;;51.47;30.48;;;15.40;87.40;;;;;;5133052;28;20044;-35
2021/06/06 05:52:35;;;;;;;43.67;27.95;;;15.50;87.40;;;;;;5132855;28;20033;-36
2021/06/06 05:55:01;;;;;;;45.70;26.20;;;15.50;87.30;;;;;;5134192;28;20098;-35
2021/06/06 05:57:27;;;;;;;44.95;26.90;;;15.60;87.10;;;;;;5135311;27;20546;-35
2021/06/06 05:59:53;;;;;;;46.85;27.40;;;15.70;86.80;;;;;;5138707;27;20442;-35
2021/06/06 06:02:19;;;;;;;49.38;27.33;;;15.90;85.60;;;;;;5138356;27;20026;-34
2021/06/06 06:04:45;;;;;;;50.47;28.55;;;15.90;85.40;;;;;;5138265;27;20035;-34
2021/06/06 06:07:11;;;;;;;43.38;25.50;;;16.00;85.60;;;;;;5138164;27;20374;-34
2021/06/06 06:09:37;;;;;;;40.63;26.77;;;15.90;85.40;;;;;;5138492;27;20079;-36
2021/06/06 06:12:04;;;;;;;41.60;27.92;;;15.80;86.50;;;;;;5138123;27;20025;-36
2021/06/06 06:14:29;;;;;;;40.42;25.63;;;15.70;86.60;;;;;;5138081;27;20058;-34
2021/06/06 06:16:55;;;;;;;41.63;25.10;;;15.50;87.40;;;;;;5138053;27;20051;-34
2021/06/06 06:19:21;;;;;;;44.22;27.67;;;15.60;87.10;;;;;;5136665;27;20050;-34
2021/06/06 06:21:46;;;;;;;47.35;27.92;;;15.40;87.50;;;;;;5137767;27;20454;-35
2021/06/06 06:24:12;;;;;;;48.00;26.42;;;15.60;87.20;;;;;;5137857;27;20050;-36
2021/06/06 06:26:39;;;;;;;51.70;27.70;;;15.80;86.60;;;;;;5137746;27;20036;-35
2021/06/06 06:29:06;;;;;;;46.92;26.25;;;15.90;86.10;;;;;;5137755;27;20023;-36
2021/06/06 06:31:32;;;;;;;41.80;25.75;;;16.20;85.10;;;;;;5137658;27;20563;-35
2021/06/06 06:33:59;;;;;;;45.20;26.67;;;16.10;85.30;;;;;;5137734;27;20020;-35
2021/06/06 06:36:25;;;;;;;47.03;27.08;;;16.10;85.20;;;;;;5137623;27;20031;-35
2021/06/06 06:38:52;;;;;;;50.20;28.58;;;15.70;86.30;;;;;;5137889;27;20087;-35
2021/06/06 06:41:20;;;;;;;48.25;27.35;;;15.80;86.70;;;;;;5136331;27;20030;-36
2021/06/06 06:43:46;;;;;;;46.03;29.50;;;15.90;85.90;;;;;;5137432;27;20042;-35
2021/06/06 06:46:11;;;;;;;52.17;29.67;;;15.80;86.40;;;;;;5137373;27;20023;-35
2021/06/06 06:48:39;;;;;;;56.25;30.25;;;16.00;86.00;;;;;;5137466;27;20023;-35
2021/06/06 06:51:05;;;;;;;55.58;28.08;;;16.30;84.50;;;;;;5137266;27;20026;-39
2021/06/06 06:53:31;;;;;;;43.72;27.23;;;16.10;85.00;;;;;;5137267;27;20102;-35
2021/06/06 06:55:57;;;;;;;48.30;28.42;;;16.10;85.30;;;;;;5137401;27;20106;-35
2021/06/06 06:58:23;;;;;;;50.83;29.67;;;16.00;85.40;;;;;;5137070;27;20072;-35
2021/06/06 07:00:51;;;;;;;50.63;28.08;;;16.10;85.30;;;;;;5137290;27;20034;-35
2021/06/06 07:03:26;;;;;;;50.13;28.55;;;16.20;85.00;;;;;;5137186;27;20025;-34
2021/06/06 07:05:53;;;;;;;54.25;29.30;;;16.20;84.50;;;;;;5136997;27;20027;-36
2021/06/06 07:08:24;;;;;;;46.17;26.73;;;16.10;85.00;;;;;;5137139;27;20019;-36
2021/06/06 07:10:50;;;;;;;49.42;27.55;;;16.20;84.60;;;;;;5136779;27;20015;-35
2021/06/06 07:13:16;;;;;;;47.00;27.75;;;16.30;84.70;;;;;;5137277;27;20037;-35
2021/06/06 07:15:43;;;;;;;48.97;28.40;;;16.30;84.00;;;;;;5137194;27;20572;-35
2021/06/06 07:18:13;;;;;;;44.92;27.73;;;16.30;84.50;;;;;;5136926;27;20038;-36
2021/06/06 07:20:41;;;;;;;43.10;26.92;;;16.30;84.40;;;;;;5136679;27;20015;-36
2021/06/06 07:23:09;;;;;;;51.35;27.60;;;16.20;84.80;;;;;;5137254;27;20537;-36
2021/06/06 07:25:36;;;;;;;65.60;30.38;;;16.10;85.10;;;;;;5136404;27;20046;-35
2021/06/06 07:28:03;;;;;;;50.50;27.48;;;16.30;84.50;;;;;;5136885;27;20466;-35
2021/06/06 07:30:46;;;;;;;35.45;26.52;;;16.30;84.20;;;;;;5136576;27;20027;-35
2021/06/06 07:33:13;;;;;;;45.10;26.63;;;16.50;83.80;;;;;;5136785;27;20467;-35
2021/06/06 07:35:38;;;;;;;45.40;24.95;;;16.40;83.40;;;;;;5136471;27;20030;-35
2021/06/06 07:38:05;;;;;;;42.75;25.50;;;16.40;83.50;;;;;;5136377;27;20031;-35
2021/06/06 07:40:35;;;;;;;41.42;24.90;;;16.60;83.60;;;;;;5136311;27;20069;-34
2021/06/06 07:43:02;;;;;;;40.55;25.40;;;16.40;83.70;;;;;;5136177;27;20019;-34
2021/06/06 07:45:32;;;;;;;39.20;25.33;;;16.30;84.10;;;;;;5134866;27;20420;-34
2021/06/06 07:47:57;;;;;;;50.43;27.13;;;16.40;83.90;;;;;;5136360;27;20046;-34
2021/06/06 07:50:28;;;;;;;45.72;25.85;;;16.40;83.70;;;;;;5135944;27;20023;-35
2021/06/06 07:52:53;;;;;;;42.85;27.77;;;16.50;83.50;;;;;;5136439;27;20037;-34
2021/06/06 07:55:22;;;;;;;43.45;25.50;;;16.10;84.80;;;;;;5136029;27;20107;-36
2021/06/06 07:57:48;;;;;;;43.25;26.25;;;16.30;84.60;;;;;;5136361;27;20031;-38
2021/06/06 08:00:26;;;;;;;42.08;24.92;;;16.50;83.60;;;;;;5136326;27;20039;-36
2021/06/06 08:02:52;;;;;;;39.13;23.75;;;16.60;83.20;;;;;;5136271;27;20062;-36
2021/06/06 08:05:18;;;;;;;48.17;27.35;;;16.40;83.40;;;;;;5135969;27;20431;-35
2021/06/06 08:07:44;;;;;;;44.03;24.48;;;16.60;83.00;;;;;;5136214;27;20490;-36
2021/06/06 08:10:13;;;;;;;39.85;24.90;;;16.40;83.20;;;;;;5134578;27;20419;-36
2021/06/06 08:12:38;;;;;;;39.58;24.30;;;16.50;82.90;;;;;;5135754;27;20102;-35
2021/06/06 08:15:06;;;;;;;36.00;23.33;;;16.70;82.50;;;;;;5135636;27;20469;-35
2021/06/06 08:17:32;;;;;;;34.13;21.55;;;16.80;82.10;;;;;;5134273;27;20060;-35
2021/06/06 08:19:57;;;;;;;34.72;21.83;;;16.80;82.40;;;;;;5136389;27;20078;-36
2021/06/06 08:22:23;;;;;;;38.33;22.02;;;16.90;81.90;;;;;;5135608;27;20023;-36
2021/06/06 08:24:49;;;;;;;31.92;21.63;;;17.10;81.00;;;;;;5135246;27;20045;-36
2021/06/06 08:27:15;;;;;;;38.33;23.67;;;17.30;80.70;;;;;;5135550;27;20142;-34
2021/06/06 08:29:42;;;;;;;39.70;23.55;;;17.10;81.10;;;;;;5135870;27;20433;-35
2021/06/06 08:32:08;;;;;;;46.35;23.67;;;17.10;81.60;;;;;;5136092;27;20062;-36
2021/06/06 08:34:33;;;;;;;44.65;23.05;;;17.20;80.30;;;;;;5135642;27;20027;-35
2021/06/06 08:37:00;;;;;;;32.70;20.88;;;17.10;80.40;;;;;;5135295;27;20535;-36
2021/06/06 08:39:29;;;;;;;33.30;20.77;;;17.30;79.50;;;;;;5133926;27;20023;-35
2021/06/06 08:42:05;;;;;;;32.67;20.98;;;17.20;80.20;;;;;;5135246;27;20031;-35
2021/06/06 08:44:35;;;;;;;29.52;19.45;;;17.10;80.30;;;;;;5135328;27;20019;-36
2021/06/06 08:47:16;;;;;;;28.88;18.80;;;16.90;80.50;;;;;;5135091;27;19947;-36
2021/06/06 08:49:47;;;;;;;28.83;20.10;;;17.00;80.30;;;;;;5135060;27;20039;-35
2021/06/06 08:52:37;;;;;;;28.52;19.60;;;17.00;80.50;;;;;;5135410;27;20019;-35
2021/06/06 08:55:41;;;;;;;28.48;19.08;;;17.30;79.30;;;;;;5133478;27;20023;-35
2021/06/06 08:58:15;;;;;;;30.67;19.40;;;17.40;79.10;;;;;;5135290;27;20027;-36
2021/06/06 09:00:46;;;;;;;26.45;18.45;;;17.30;79.00;;;;;;5135008;27;20023;-36
2021/06/06 09:03:18;;;;;;;;;;;17.50;79.20;;;;;;5134078;27;20038;-36
2021/06/06 09:05:45;;;;;;;28.27;19.20;;;17.60;78.10;;;;;;5135108;27;19915;-36
2021/06/06 09:08:17;;;;;;;28.45;18.80;;;17.60;78.50;;;;;;5133549;27;20019;-36
2021/06/06 09:10:48;;;;;;;31.52;19.23;;;17.80;77.40;;;;;;5134823;27;20046;-36
2021/06/06 09:13:14;;;;;;;29.55;19.25;;;17.80;78.00;;;;;;5134860;27;20019;-35
2021/06/06 09:15:40;;;;;;;26.52;17.58;;;18.00;77.30;;;;;;5134518;27;20034;-36
2021/06/06 09:18:24;;;;;;;30.92;19.23;;;17.50;78.40;;;;;;5135010;27;20031;-37
2021/06/06 09:20:53;;;;;;;29.63;19.40;;;17.80;78.00;;;;;;5134515;27;20467;-35
2021/06/06 09:23:28;;;;;;;26.95;18.33;;;18.10;76.70;;;;;;5134177;27;20030;-36
2021/06/06 09:26:17;;;;;;;26.92;18.65;;;18.20;76.60;;;;;;5134920;27;20505;-36
2021/06/06 09:28:46;;;;;;;29.52;18.90;;;18.20;75.80;;;;;;5134428;27;20046;-34
2021/06/06 09:31:22;;;;;;;27.13;18.50;;;18.30;75.90;;;;;;5134796;27;20024;-35
2021/06/06 09:33:52;;;;;;;29.42;19.17;;;18.30;76.10;;;;;;5134029;27;20027;-35
2021/06/06 09:36:59;;;;;;;29.70;17.27;;;18.10;75.70;;;;;;5134664;27;20023;-37
2021/06/06 09:39:25;;;;;;;25.58;18.33;;;18.20;75.80;;;;;;5134397;27;20031;-35
2021/06/06 09:41:52;;;;;;;26.52;18.83;;;18.20;75.70;;;;;;5134747;28;20027;-36
2021/06/06 09:44:25;;;;;;;29.92;18.88;;;18.40;75.30;;;;;;5134355;27;20034;-36
2021/06/06 09:46:51;;;;;;;28.23;19.35;;;18.10;76.40;;;;;;5134353;27;20110;-35
2021/06/06 09:49:28;;;;;;;30.98;18.27;;;18.20;76.10;;;;;;5134297;28;20442;-36
2021/06/06 09:52:16;;;;;;;29.27;17.52;;;18.50;75.00;;;;;;5134634;27;20038;-36
2021/06/06 09:54:52;;;;;;;21.85;15.77;;;18.10;76.30;;;;;;5132423;28;20427;-37
2021/06/06 09:57:37;;;;;;;24.85;16.80;;;18.40;75.10;;;;;;5133510;28;20022;-36
2021/06/06 10:00:25;;;;;;;25.17;17.85;;;18.50;74.80;;;;;;5134238;27;20067;-35
2021/06/06 10:02:56;;;;;;;23.70;16.50;;;18.40;75.20;;;;;;5134324;27;20043;-36
2021/06/06 10:05:24;;;;;;;32.80;20.20;;;18.40;75.80;;;;;;5134605;27;20122;-38
2021/06/06 10:07:56;;;;;;;26.40;18.55;;;18.30;75.70;;;;;;5134124;28;20019;-37
2021/06/06 10:10:31;;;;;;;34.47;20.52;;;18.20;76.30;;;;;;5132425;28;20074;-35
2021/06/06 10:12:59;;;;;;;25.33;17.90;;;18.30;76.10;;;;;;5134487;28;20091;-35
2021/06/06 10:15:26;;;;;;;25.05;17.40;;;18.20;76.40;;;;;;5134157;27;20019;-36
2021/06/06 10:17:59;;;;;;;26.25;16.67;;;18.20;76.90;;;;;;5134284;27;20560;-36
2021/06/06 10:20:33;;;;;;;29.40;17.33;;;18.30;76.20;;;;;;5132608;28;20086;-36
2021/06/06 10:23:08;;;;;;;29.00;17.98;;;18.10;77.10;;;;;;5115525;28;20482;-37
2021/06/06 10:25:51;;;;;;;24.30;16.17;;;18.30;76.50;;;;;;5133982;27;20050;-35
2021/06/06 10:28:25;;;;;;;25.42;16.65;;;18.20;77.00;;;;;;5133931;28;20031;-35
2021/06/06 10:31:22;;;;;;;24.40;17.27;;;18.10;77.20;;;;;;5134254;27;20196;-35
2021/06/06 10:33:58;;;;;;;21.23;16.30;;;18.30;76.60;;;;;;5122831;28;20055;-36
2021/06/06 10:36:26;;;;;;;30.77;17.40;;;18.30;76.80;;;;;;5133897;27;20034;-36
2021/06/06 10:38:53;;;;;;;27.67;16.40;;;18.30;77.10;;;;;;5132390;28;20039;-36
2021/06/06 10:41:22;;;;;;;23.42;15.63;;;18.10;77.20;;;;;;5133838;27;20478;-35
2021/06/06 10:44:22;;;;;;;20.83;16.67;;;18.20;77.20;;;;;;5134047;27;20015;-36
2021/06/06 10:47:08;;;;;;;;;;;18.10;77.40;;;;;;5122968;27;20035;-36
2021/06/06 10:50:13;;;;;;;18.98;14.15;;;18.40;76.80;;;;;;5122711;27;19926;-35
2021/06/06 10:52:39;;;;;;;19.25;14.32;;;18.70;75.60;;;;;;5137451;27;20055;-36
2021/06/06 10:55:29;;;;;;;19.52;13.45;;;19.00;74.70;;;;;;5137542;27;20046;-45
2021/06/06 10:57:55;;;;;;;21.10;15.48;;;19.00;74.00;;;;;;5137296;27;20076;-37
2021/06/06 11:00:29;;;;;;;21.20;14.70;;;18.70;75.60;;;;;;5136807;27;20047;-36
2021/06/06 11:03:13;;;;;;;19.67;15.02;;;18.20;76.70;;;;;;5136494;27;20027;-36
2021/06/06 11:05:52;;;;;;;25.38;15.52;;;18.60;75.50;;;;;;5136898;27;20027;-35
2021/06/06 11:08:20;;;;;;;26.58;16.05;;;18.60;75.90;;;;;;5137145;27;20019;-36
2021/06/06 11:10:47;;;;;;;29.73;16.60;;;18.30;76.30;;;;;;5135715;27;20106;-36
2021/06/06 11:13:28;;;;;;;27.08;17.17;;;18.20;76.40;;;;;;5137132;27;20489;-36
2021/06/06 11:16:01;;;;;;;24.48;16.65;;;18.00;77.00;;;;;;5136634;27;20023;-35
2021/06/06 11:18:27;;;;;;;24.98;16.30;;;18.20;76.90;;;;;;5136711;27;20076;-36
2021/06/06 11:20:59;;;;;;;23.10;15.80;;;18.40;76.40;;;;;;5136996;27;20079;-36
2021/06/06 11:23:39;;;;;;;24.05;17.65;;;18.60;75.70;;;;;;5136635;27;20181;-35
2021/06/06 11:26:22;;;;;;;22.07;16.37;;;18.50;76.10;;;;;;5136953;27;20031;-35
2021/06/06 11:28:50;;;;;;;23.83;15.45;;;18.40;75.70;;;;;;5136479;27;20256;-35
2021/06/06 11:31:32;;;;;;;29.00;17.80;;;17.90;77.90;;;;;;5136203;27;20060;-36
2021/06/06 11:34:00;;;;;;;26.95;17.25;;;18.10;77.50;;;;;;5136139;27;20024;-36
2021/06/06 11:36:37;;;;;;;29.48;17.90;;;18.30;76.10;;;;;;5136496;27;20019;-36
2021/06/06 11:39:16;;;;;;;28.35;16.88;;;18.30;76.70;;;;;;5135703;27;20035;-35
2021/06/06 11:41:46;;;;;;;30.70;20.13;;;18.30;76.80;;;;;;5136393;27;20512;-35
2021/06/06 11:44:39;;;;;;;25.52;18.40;;;18.30;77.00;;;;;;5136497;27;20019;-35
2021/06/06 11:47:28;;;;;;;31.05;18.17;;;18.40;76.80;;;;;;5135068;27;20423;-35
2021/06/06 11:50:17;;;;;;;32.35;22.90;;;18.80;75.40;;;;;;5136444;27;20318;-35
2021/06/06 11:52:52;;;;;;;27.48;18.80;;;19.00;75.00;;;;;;5136343;27;20045;-35
2021/06/06 11:55:33;;;;;;;25.05;17.75;;;19.10;74.20;;;;;;5135607;27;20521;-35
2021/06/06 11:58:15;;;;;;;29.00;19.10;;;19.30;74.00;;;;;;5134776;27;20023;-36
2021/06/06 12:01:07;;;;;;;30.17;19.63;;;18.80;76.00;;;;;;5136199;27;20031;-36
2021/06/06 12:03:39;;;;;;;33.22;21.23;;;19.00;75.10;;;;;;5135775;27;20057;-35
2021/06/06 12:06:28;;;;;;;32.55;20.60;;;19.20;74.70;;;;;;5135813;27;20106;-35
2021/06/06 12:08:57;;;;;;;32.17;20.52;;;19.70;72.70;;;;;;5136229;27;20022;-36
2021/06/06 12:11:31;;;;;;;35.47;22.10;;;19.30;73.70;;;;;;5136113;27;20094;-35
2021/06/06 12:14:13;;;;;;;29.38;20.17;;;19.20;74.10;;;;;;5135440;27;20034;-36
2021/06/06 12:16:49;;;;;;;31.38;19.95;;;19.10;74.90;;;;;;5134098;27;20350;-36
2021/06/06 12:19:17;;;;;;;40.85;22.52;;;19.10;74.20;;;;;;5135819;27;20378;-34
2021/06/06 12:21:46;;;;;;;29.35;21.35;;;19.10;74.20;;;;;;5135578;27;20473;-35
2021/06/06 12:24:20;;;;;;;34.85;22.70;;;19.10;74.00;;;;;;5135229;27;20046;-36
2021/06/06 12:27:04;;;;;;;32.05;20.10;;;19.10;74.10;;;;;;5135718;27;20031;-35
2021/06/06 12:29:45;;;;;;;32.55;21.60;;;18.90;75.20;;;;;;5135802;27;20374;-36
2021/06/06 12:32:25;;;;;;;36.67;24.05;;;18.80;75.50;;;;;;5135547;27;20051;-36
2021/06/06 12:34:51;;;;;;;36.00;24.02;;;18.70;75.60;;;;;;5135282;27;20026;-35
2021/06/06 12:37:29;;;;;;;35.30;21.25;;;18.80;75.10;;;;;;5134377;27;20404;-35
2021/06/06 12:39:59;;;;;;;34.38;21.92;;;19.10;74.10;;;;;;5135615;27;20040;-35
2021/06/06 12:42:26;;;;;;;31.38;21.77;;;18.90;74.60;;;;;;5135378;27;20011;-36
2021/06/06 12:44:54;;;;;;;29.55;20.67;;;18.50;76.60;;;;;;5133735;27;20023;-36
2021/06/06 12:47:28;;;;;;;35.50;22.27;;;18.80;75.50;;;;;;5135208;27;20023;-35
2021/06/06 12:50:00;;;;;;;30.13;20.88;;;19.30;74.30;;;;;;5133706;27;20023;-34